Acme, North Carolina
Current Conditions -  °F | °C
As of 4:53 PM on Monday 24 Nov 2014 (Local Time) from KILM Reporting Station
Haze Haze  
Wind Chill: 71°   Ceiling: 600
Heat Index: 71°   Visibility: 6mi
Dew Point: 69°   Wind: 13mph
Humidity: 93%   Direction: 220°SW
Pressure: 29.88"   Gusts: 21mph
Location:  34.3494°N, 78.2681°W
Report Text: KILM 242153Z 22011G18KT 6SM BR OVC006 22/21 A2988 RMK AO2 SLP119 T02170206
Loading
Personal Weather Stations






























Interactive Weather Map New forecast layout! Learn more

10-Day Weather Forecast

Advertisements
Track Severe Weather on mobile